• Join FlightAware (Why Join?)
  • Login
  • US Flag 
Gobble Gobble! 
10:11PM EST


 

Airport Tracker/Info


-or-


 

Live Flight TrackerFlight Track Log ✈ ACA831 ✈ 28-Apr-2013 ✈ CYUL - CYYZ

Flight Track Log - Related Links

Times and Time Zones

All times are in EDT time to prevent confusion due to time zone crossing. See the ACA831 flight status page for this flight to view local times or setup timezone preferences in your user account.

Time Position Orientation Groundspeed Altitude Reporting Facility
EDT Latitude Longitude Course Direction KTS MPH feet Rate Location/Type
04:15PM 45.4520 -73.7490 90° East 174 200 1,000  Level FlightAware
04:15PM 45.4330 -73.7730 222° Southwest 188 216 2,400 2,460 Climbing FlightAware
04:16PM 45.4150 -73.7970 223° Southwest 228 262 3,300 2,400 Climbing FlightAware
04:16PM 45.4070 -73.8100 229° Southwest 240 276 4,000 3,000 Climbing FlightAware
04:16PM 45.3990 -73.8370 247° West 258 297 4,800 3,360 Climbing FlightAware
04:16PM 45.3940 -73.8630 255° West 265 305 5,700 2,520 Climbing FlightAware
04:17PM 45.3870 -73.9050 257° West 267 307 6,500 1,080 Climbing FlightAware
04:17PM 45.3780 -73.9570 256° West 269 310 6,700 420 Climbing FlightAware
04:17PM 45.3770 -73.9730 265° West 272 313 6,800 120 Climbing FlightAware
04:18PM 45.3920 -74.0240 293° West 275 316 6,800 1,080 Level FlightAware
04:18PM 45.4090 -74.0710 297° West 268 308 7,900 2,820 Climbing FlightAware
04:19PM 45.4230 -74.1120 296° West 277 319 9,400 3,120 Climbing FlightAware
04:19PM 45.4320 -74.1650 284° West 298 343 10,800 2,220 Climbing FlightAware
04:20PM 45.4270 -74.2530 265° West 353 406 12,000 2,700 Climbing FlightAware
04:21PM 45.4210 -74.3560 265° West 366 421 14,700 3,360 Climbing FlightAware
04:21PM 45.4120 -74.4570 263° West 379 436 16,800 2,940 Climbing FlightAware
04:22PM 45.3940 -74.5680 257° West 394 453 18,900 2,820 Climbing FlightAware
04:23PM 45.3760 -74.6690 256° West 406 467 20,800 2,640 Climbing FlightAware
04:24PM 45.3560 -74.7900 257° West 417 480 22,700 2,460 Climbing FlightAware
04:24PM 45.3360 -74.9080 256° West 426 490 24,500 2,280 Climbing FlightAware
04:25PM 45.3170 -75.0180 256° West 433 498 26,000 1,980 Climbing FlightAware
04:26PM 45.2980 -75.1300 256° West 444 511 27,200 1,920 Climbing FlightAware
04:26PM 45.2740 -75.2630 256° West 450 518 28,800 2,820 Climbing FlightAware
04:28PM 45.2430 -75.4450 256° West 410 472 32,700 2,820 Climbing FlightAware
04:28PM 45.2240 -75.5510 256° West 405 466 34,000 960 Climbing FlightAware
04:29PM 45.2050 -75.6540 255° West 409 471 34,000  Level FlightAware
04:30PM 45.1840 -75.7730 256° West 403 464 34,000 -180 Level FlightAware
04:30PM 45.1650 -75.8790 256° West 405 466 33,800 -1,080 Descending FlightAware
04:31PM 45.1470 -75.9780 256° West 396 456 32,600 -2,100 Descending FlightAware
04:32PM 45.1300 -76.0720 256° West 394 453 31,000 -1,860 Descending FlightAware
04:32PM 45.1100 -76.1790 255° West 411 473 30,000 -720 Descending FlightAware
04:33PM 45.0760 -76.2930 247° West 430 495 30,000  Level FlightAware
04:34PM 45.0370 -76.3930 241° Southwest 432 497 30,000 -840 Level FlightAware
04:35PM 45.0000 -76.4870 241° Southwest 428 493 28,900 -1,440 Descending FlightAware
04:35PM 44.9530 -76.6030 240° Southwest 443 510 28,000 -660 Descending FlightAware
04:36PM 44.9120 -76.7070 241° Southwest 440 506 28,000  Level FlightAware
04:37PM 44.8670 -76.8190 240° Southwest 438 504 28,000  Level FlightAware
04:37PM 44.8270 -76.9180 240° Southwest 438 504 28,000  Level FlightAware
04:38PM 44.7880 -77.0150 240° Southwest 436 502 28,000  Level FlightAware
04:39PM 44.7430 -77.1260 240° Southwest 436 502 28,000  Level FlightAware
04:39PM 44.7040 -77.2240 241° Southwest 434 499 28,000  Level FlightAware
04:40PM 44.6610 -77.3300 240° Southwest 434 499 28,000  Level FlightAware
04:41PM 44.6200 -77.4280 240° Southwest 435 501 28,000  Level FlightAware
04:42PM 44.5780 -77.5310 240° Southwest 434 499 28,000 -360 Level FlightAware
04:42PM 44.5370 -77.6310 240° Southwest 424 488 27,500 -1,680 Descending FlightAware
04:43PM 44.5010 -77.7180 240° Southwest 422 486 25,800 -1,920 Descending FlightAware
04:44PM 44.4550 -77.8290 240° Southwest 422 486 25,000 -540 Descending FlightAware
04:44PM 44.4120 -77.9330 240° Southwest 422 486 25,000  Level FlightAware
04:45PM 44.3720 -78.0290 240° Southwest 441 507 25,000  Level FlightAware
04:46PM 44.3330 -78.1220 240° Southwest 447 514 25,000  Level FlightAware
04:46PM 44.2820 -78.2430 240° Southwest 447 514 25,000  Level FlightAware
04:47PM 44.2400 -78.3410 239° Southwest 444 511 25,000 -180 Level FlightAware
04:48PM 44.1990 -78.4370 239° Southwest 421 484 24,800 -1,020 Descending FlightAware
04:49PM 44.1560 -78.5390 240° Southwest 406 467 23,600 -1,920 Descending FlightAware
04:49PM 44.1200 -78.6240 239° Southwest 397 457 22,100 -2,280 Descending FlightAware
04:50PM 44.0760 -78.7250 239° Southwest 388 447 20,400 -2,280 Descending FlightAware
04:51PM 44.0410 -78.8080 240° Southwest 378 435 18,900 -2,220 Descending FlightAware
04:51PM 43.9990 -78.9000 238° Southwest 368 423 17,300 -2,100 Descending FlightAware
04:52PM 43.9620 -78.9790 237° Southwest 357 411 16,000 -1,320 Descending FlightAware
04:53PM 43.9290 -79.0520 238° Southwest 324 373 15,600 -1,200 Descending FlightAware
04:53PM 43.8930 -79.1290 237° Southwest 318 366 14,300 -1,680 Descending FlightAware
04:54PM 43.8620 -79.1970 238° Southwest 309 356 13,300 -1,500 Descending FlightAware
04:55PM 43.8320 -79.2630 238° Southwest 303 349 12,300 -1,440 Descending FlightAware
04:56PM 43.7980 -79.3350 237° Southwest 285 328 11,300 -1,380 Descending FlightAware
04:56PM 43.7600 -79.3860 224° Southwest 247 284 10,300 -1,380 Descending FlightAware
04:57PM 43.7320 -79.4140 216° Southwest 240 276 9,600 -1,320 Descending FlightAware
04:57PM 43.7140 -79.4310 214° Southwest 237 273 9,200 -780 Descending FlightAware
04:58PM 43.6810 -79.4630 215° Southwest 244 281 8,900 -300 Descending FlightAware
04:58PM 43.6580 -79.4850 215° Southwest 243 280 8,900 -360 Level FlightAware
04:59PM 43.6310 -79.5120 216° Southwest 245 282 8,600 -720 Descending FlightAware
04:59PM 43.6050 -79.5370 215° Southwest 243 280 8,200 -960 Descending FlightAware
04:59PM 43.5860 -79.5600 221° Southwest 245 282 7,800 -1,380 Descending FlightAware
05:00PM 43.5710 -79.5810 225° Southwest 244 281 7,300 -1,620 Descending FlightAware
05:00PM 43.5510 -79.6110 227° Southwest 242 278 6,600 -1,860 Descending FlightAware
05:01PM 43.5280 -79.6440 226° Southwest 237 273 5,600 -1,920 Descending FlightAware
05:01PM 43.5060 -79.6760 227° Southwest 229 264 4,700 -1,680 Descending FlightAware
05:02PM 43.4960 -79.7090 247° West 239 275 4,100 -1,200 Descending FlightAware
05:02PM 43.5130 -79.7460 302° West 238 274 3,600 -1,200 Descending FlightAware
05:02PM 43.5290 -79.7530 342° North 230 265 3,200 -1,080 Descending FlightAware
05:03PM 43.5520 -79.7450 14° North 216 249 2,900 -480 Descending FlightAware
05:03PM 43.5680 -79.7400 13° North 219 252 2,900 -420 Level FlightAware
05:03PM 43.5820 -79.7320 22° Northeast 210 242 2,700 -1,080 Descending FlightAware
05:04PM 43.6020 -79.7050 44° Northeast 202 232 2,100 -1,140 Descending FlightAware
05:04PM 43.6150 -79.6850 48° Northeast 193 222 1,700 -1,020 Descending FlightAware
05:05PM 43.6340 -79.6560 48° Northeast 172 198 1,200 -900 Descending FlightAware
05:05PM 43.6450 -79.6410 45° Northeast 163 188 900 -900 Descending FlightAware
05:05PM 43.6510 -79.6330 44° Northeast 157 181 700 -360 Descending FlightAware
05:06PM 43.6630 -79.6160 46° Northeast 157 181 700  Level FlightAware